Time,TemperatureF,DewpointF,PressureIn,WindDirection,WindDirectionDegrees,WindSpeedMPH,WindSpeedGustMPH,Humidity,HourlyPrecipIn,Conditions,Clouds,dailyrainin,SoftwareType,DateUTC
2013-07-23 00:00:00,69.0,69.0,29.86,East,90,14.0,14.0,100,-99.99,,,-99.99,,2013-07-23 04:00:00,
2013-07-23 00:42:00,69.0,69.0,29.86,East,90,14.0,14.0,100,-99.99,,,-99.99,,2013-07-23 04:42:00,
2013-07-23 00:53:00,69.0,69.0,29.86,East,90,14.0,14.0,100,-99.99,,,-99.99,,2013-07-23 04:53:00,
2013-07-23 01:00:00,70.0,70.0,29.83,ESE,110,13.0,13.0,100,-99.99,,,-99.99,,2013-07-23 05:00:00,
2013-07-23 01:33:00,70.0,70.0,29.83,ESE,110,13.0,13.0,100,-99.99,,,-99.99,,2013-07-23 05:33:00,
2013-07-23 01:43:00,70.0,70.0,29.83,ESE,110,13.0,13.0,100,-99.99,,,-99.99,,2013-07-23 05:43:00,
2013-07-23 01:52:00,70.0,70.0,29.83,ESE,110,13.0,13.0,100,-99.99,,,-99.99,,2013-07-23 05:52:00,
2013-07-23 03:00:00,69.0,69.0,29.78,ESE,110,14.0,14.0,100,-99.99,,,-99.99,,2013-07-23 07:00:00,
2013-07-23 03:32:00,69.0,69.0,29.78,ESE,110,14.0,14.0,100,-99.99,,,-99.99,,2013-07-23 07:32:00,
2013-07-23 03:42:00,69.0,69.0,29.78,ESE,110,14.0,14.0,100,-99.99,,,-99.99,,2013-07-23 07:42:00,
2013-07-23 03:52:00,69.0,69.0,29.78,ESE,110,14.0,14.0,100,-99.99,,,-99.99,,2013-07-23 07:52:00,
2013-07-23 04:00:00,70.0,70.0,29.75,SE,130,15.0,15.0,100,-99.99,,,-99.99,,2013-07-23 08:00:00,
2013-07-23 04:43:00,70.0,70.0,29.75,SE,130,15.0,15.0,100,-99.99,,,-99.99,,2013-07-23 08:43:00,
2013-07-23 04:52:00,70.0,70.0,29.75,SE,130,15.0,15.0,100,-99.99,,,-99.99,,2013-07-23 08:52:00,
2013-07-23 05:00:00,71.0,71.0,29.73,SE,140,14.0,14.0,100,-99.99,,,-99.99,,2013-07-23 09:00:00,
2013-07-23 05:42:00,71.0,71.0,29.73,SE,140,14.0,14.0,100,-99.99,,,-99.99,,2013-07-23 09:42:00,
2013-07-23 05:52:00,71.0,71.0,29.73,SE,140,14.0,14.0,100,-99.99,,,-99.99,,2013-07-23 09:52:00,
2013-07-23 06:00:00,72.0,72.0,29.72,SE,140,12.0,13.0,100,-99.99,,,-99.99,,2013-07-23 10:00:00,
2013-07-23 06:43:00,72.0,72.0,29.72,SE,140,12.0,13.0,100,-99.99,,,-99.99,,2013-07-23 10:43:00,
2013-07-23 06:52:00,72.0,72.0,29.72,SE,140,12.0,13.0,100,-99.99,,,-99.99,,2013-07-23 10:52:00,
2013-07-23 07:00:00,72.0,72.0,29.71,SSE,150,17.0,17.0,100,-99.99,,,-99.99,,2013-07-23 11:00:00,
2013-07-23 07:43:00,72.0,72.0,29.71,SSE,150,17.0,17.0,100,-99.99,,,-99.99,,2013-07-23 11:43:00,
2013-07-23 07:52:00,72.0,72.0,29.71,SSE,150,17.0,17.0,100,-99.99,,,-99.99,,2013-07-23 11:52:00,
2013-07-23 08:00:00,72.0,72.0,29.69,SSE,150,18.0,18.0,100,-99.99,,,-99.99,,2013-07-23 12:00:00,
2013-07-23 08:43:00,72.0,72.0,29.69,SSE,150,18.0,18.0,100,-99.99,,,-99.99,,2013-07-23 12:43:00,
2013-07-23 09:00:00,72.0,72.0,29.67,South,170,16.0,17.0,100,-99.99,,,-99.99,,2013-07-23 13:00:00,
2013-07-23 09:32:00,72.0,72.0,29.67,South,170,16.0,17.0,100,-99.99,,,-99.99,,2013-07-23 13:32:00,
2013-07-23 09:43:00,72.0,72.0,29.67,South,170,16.0,17.0,100,-99.99,,,-99.99,,2013-07-23 13:43:00,
2013-07-23 09:52:00,72.0,72.0,29.67,South,170,16.0,17.0,100,-99.99,,,-99.99,,2013-07-23 13:52:00,
2013-07-23 10:00:00,73.0,73.0,29.65,South,170,16.0,16.0,100,-99.99,,,-99.99,,2013-07-23 14:00:00,
2013-07-23 11:00:00,74.0,74.0,29.65,South,180,16.0,17.0,100,-99.99,,,-99.99,,2013-07-23 15:00:00,
2013-07-23 11:32:00,74.0,74.0,29.65,South,180,16.0,17.0,100,-99.99,,,-99.99,,2013-07-23 15:32:00,
2013-07-23 11:43:00,74.0,74.0,29.65,South,180,16.0,17.0,100,-99.99,,,-99.99,,2013-07-23 15:43:00,
2013-07-23 11:52:00,74.0,74.0,29.65,South,180,16.0,17.0,100,-99.99,,,-99.99,,2013-07-23 15:52:00,
2013-07-23 12:00:00,74.0,74.0,29.64,South,180,16.0,16.0,100,-99.99,,,-99.99,,2013-07-23 16:00:00,
2013-07-23 12:43:00,74.0,74.0,29.64,South,180,16.0,16.0,100,-99.99,,,-99.99,,2013-07-23 16:43:00,
2013-07-23 12:52:00,74.0,74.0,29.64,South,180,16.0,16.0,100,-99.99,,,-99.99,,2013-07-23 16:52:00,
2013-07-23 13:00:00,74.0,74.0,29.62,South,190,17.0,18.0,100,-99.99,,,-99.99,,2013-07-23 17:00:00,
2013-07-23 13:42:00,74.0,74.0,29.62,South,190,17.0,18.0,100,-99.99,,,-99.99,,2013-07-23 17:42:00,
2013-07-23 14:00:00,74.0,74.0,29.60,SSW,200,18.0,20.0,100,-99.99,,,-99.99,,2013-07-23 18:00:00,
2013-07-23 14:32:00,74.0,74.0,29.60,SSW,200,18.0,20.0,100,-99.99,,,-99.99,,2013-07-23 18:32:00,
2013-07-23 14:52:00,74.0,74.0,29.60,SSW,200,18.0,20.0,100,-99.99,,,-99.99,,2013-07-23 18:52:00,
2013-07-23 15:52:00,74.0,74.0,29.58,SSW,210,21.0,22.0,100,-99.99,,,-99.99,,2013-07-23 19:52:00,
2013-07-23 17:00:00,74.0,74.0,29.58,SW,220,21.0,22.0,100,-99.99,,,-99.99,,2013-07-23 21:00:00,
2013-07-23 17:43:00,74.0,74.0,29.58,SW,220,21.0,22.0,100,-99.99,,,-99.99,,2013-07-23 21:43:00,
2013-07-23 17:52:00,74.0,74.0,29.58,SW,220,21.0,22.0,100,-99.99,,,-99.99,,2013-07-23 21:52:00,
2013-07-23 18:00:00,74.0,74.0,29.56,SSW,210,21.0,22.0,100,-99.99,,,-99.99,,2013-07-23 22:00:00,
2013-07-23 18:43:00,74.0,74.0,29.56,SSW,210,21.0,22.0,100,-99.99,,,-99.99,,2013-07-23 22:43:00,
2013-07-23 18:53:00,74.0,74.0,29.56,SSW,210,21.0,22.0,100,-99.99,,,-99.99,,2013-07-23 22:53:00,
2013-07-23 19:00:00,74.0,74.0,29.58,SW,220,18.0,18.0,100,-99.99,,,-99.99,,2013-07-23 23:00:00,
2013-07-23 19:42:00,74.0,74.0,29.58,SW,220,18.0,18.0,100,-99.99,,,-99.99,,2013-07-23 23:42:00,
2013-07-23 19:52:00,74.0,74.0,29.58,SW,220,18.0,18.0,100,-99.99,,,-99.99,,2013-07-23 23:52:00,
2013-07-23 21:32:00,74.0,74.0,29.59,SW,230,17.0,18.0,100,-99.99,,,-99.99,,2013-07-24 01:32:00,
2013-07-23 21:43:00,74.0,74.0,29.59,SW,230,17.0,18.0,100,-99.99,,,-99.99,,2013-07-24 01:43:00,
2013-07-23 21:52:00,74.0,74.0,29.59,SW,230,17.0,18.0,100,-99.99,,,-99.99,,2013-07-24 01:52:00,
2013-07-23 22:00:00,74.0,74.0,29.59,SW,220,16.0,18.0,100,-99.99,,,-99.99,,2013-07-24 02:00:00,
2013-07-23 22:43:00,74.0,74.0,29.59,SW,220,16.0,18.0,100,-99.99,,,-99.99,,2013-07-24 02:43:00,
2013-07-23 22:52:00,74.0,74.0,29.59,SW,220,16.0,18.0,100,-99.99,,,-99.99,,2013-07-24 02:52:00,